ABX weather

Albury Airport
Albury, New South Wales, Australia

Public forecast

Using degrees Celsius for public forecast. Weather courtesy of forecast.io.

METAR (pilot weather report)

Retrieved 2018/01/21 16:35 UTC (9 minutes ago):

YMAY 211635Z AUTO 27017KT 9999 // SCT093 SCT110 30/10 Q1007

TAF (pilot weather forecast)

Forecast is more than 12 hours old.

Closest forecast is Wangaratta Airport, 37.8 nm (70.0 km) WSW. Retrieved 2018/01/21 02:03 UTC (15 hours ago):

TAF YWGT 210045Z 2102/2114 VRB05KT CAVOK